^^
Saratoga-Weather Station Historical Data
Daily Summary for May 8, 2020 Units:  Both    English   Metric
Daily Weekly Monthly Yearly Custom
  High: Low: Average:
Temperature: 68.5 °F /  20.3 °C 49.1 °F /  9.5 °C 57.4 °F /  14.1 °C
Dew Point: 52.7 °F /  11.5 °C 45.1 °F /  7.3 °C 48.6 °F /  9.2 °C
Humidity: 93% 43% 75%
Wind Speed: 11mph /  17.7km/h - 1.7mph /  2.7km/h
Wind Gust: 13mph /  20.9km/h - -
Wind- - WSW
Pressure: 29.9 in /  1012.9 hPa 29.9 in /  1011.2 hPa -
Precipitation: 0 in /  0.0 mm    
Historical Graphs
 
 
Tabular Data for May 8, 2020
Time Temperature Dew Point Pressure Wind Wind Speed Wind Gust Humidity Rainfall Rate (Hourly) solar
00:04 51.6 °F /  10.9 °C 47.3 °F /  8.5 °C 29.9in /  1011.5hPa West 2mph /  3.2km/h 2mph /  3.2km/h 85% 0in /  0.0mm 0 W/m2
00:09 51.4 °F /  10.8 °C 47.5 °F /  8.6 °C 29.9in /  1011.5hPa Calm   1mph /  1.6km/h 86% 0in /  0.0mm 0 W/m2
00:14 51.3 °F /  10.7 °C 47.3 °F /  8.5 °C 29.9in /  1011.5hPa Calm   1mph /  1.6km/h 86% 0in /  0.0mm 0 W/m2
00:19 51.3 °F /  10.7 °C 47.5 °F /  8.6 °C 29.9in /  1011.5hPa Calm   1mph /  1.6km/h 87% 0in /  0.0mm 0 W/m2
00:24 51.1 °F /  10.6 °C 47.3 °F /  8.5 °C 29.9in /  1011.9hPa Calm   1mph /  1.6km/h 87% 0in /  0.0mm 0 W/m2
00:29 50.7 °F /  10.4 °C 46.9 °F /  8.3 °C 29.9in /  1011.5hPa Calm   1mph /  1.6km/h 87% 0in /  0.0mm 0 W/m2
00:34 50.5 °F /  10.3 °C 46.8 °F /  8.2 °C 29.9in /  1011.9hPa Calm     87% 0in /  0.0mm 0 W/m2
00:39 50.5 °F /  10.3 °C 47.1 °F /  8.4 °C 29.9in /  1011.9hPa Calm     88% 0in /  0.0mm 0 W/m2
00:44 50.4 °F /  10.2 °C 46.9 °F /  8.3 °C 29.9in /  1011.5hPa Calm   1mph /  1.6km/h 88% 0in /  0.0mm 0 W/m2
00:49 50.2 °F /  10.1 °C 46.8 °F /  8.2 °C 29.9in /  1011.9hPa Calm   1mph /  1.6km/h 88% 0in /  0.0mm 0 W/m2
00:54 50 °F /  10 °C 46.9 °F /  8.3 °C 29.9in /  1011.9hPa Calm     89% 0in /  0.0mm 0 W/m2
00:59 50 °F /  10 °C 46.9 °F /  8.3 °C 29.9in /  1011.9hPa Calm     89% 0in /  0.0mm 0 W/m2
01:04 49.8 °F /  9.9 °C 46.8 °F /  8.2 °C 29.9in /  1011.9hPa Calm     89% 0in /  0.0mm 0 W/m2
01:09 49.6 °F /  9.8 °C 46.8 °F /  8.2 °C 29.9in /  1011.9hPa Calm     90% 0in /  0.0mm 0 W/m2
01:14 49.6 °F /  9.8 °C 46.8 °F /  8.2 °C 29.9in /  1011.9hPa West 0.9mph /  1.4km/h 1mph /  1.6km/h 90% 0in /  0.0mm 0 W/m2
01:19 49.6 °F /  9.8 °C 46.8 °F /  8.2 °C 29.9in /  1011.9hPa Calm   1mph /  1.6km/h 90% 0in /  0.0mm 0 W/m2
01:24 49.5 °F /  9.7 °C 46.6 °F /  8.1 °C 29.9in /  1011.9hPa Calm     90% 0in /  0.0mm 0 W/m2
01:29 49.5 °F /  9.7 °C 46.6 °F /  8.1 °C 29.9in /  1011.9hPa Calm     90% 0in /  0.0mm 0 W/m2
01:35 49.3 °F /  9.6 °C 46.8 °F /  8.2 °C 29.9in /  1011.9hPa Calm     91% 0in /  0.0mm 0 W/m2
01:40 49.5 °F /  9.7 °C 46.9 °F /  8.3 °C 29.9in /  1011.9hPa Calm   1mph /  1.6km/h 91% 0in /  0.0mm 0 W/m2
01:45 49.6 °F /  9.8 °C 47.1 °F /  8.4 °C 29.9in /  1011.9hPa Calm   1mph /  1.6km/h 91% 0in /  0.0mm 0 W/m2
01:50 49.8 °F /  9.9 °C 47.3 °F /  8.5 °C 29.9in /  1011.9hPa NW 0.9mph /  1.4km/h 1mph /  1.6km/h 91% 0in /  0.0mm 0 W/m2
01:55 50.4 °F /  10.2 °C 47.8 °F /  8.8 °C 29.9in /  1011.9hPa Calm   2mph /  3.2km/h 91% 0in /  0.0mm 0 W/m2
02:00 50.5 °F /  10.3 °C 47.7 °F /  8.7 °C 29.9in /  1011.9hPa Calm   1mph /  1.6km/h 90% 0in /  0.0mm 0 W/m2
02:05 50.7 °F /  10.4 °C 47.8 °F /  8.8 °C 29.9in /  1011.9hPa Calm   1mph /  1.6km/h 90% 0in /  0.0mm 0 W/m2
02:10 50.7 °F /  10.4 °C 47.8 °F /  8.8 °C 29.9in /  1011.9hPa NNE 0.9mph /  1.4km/h 2mph /  3.2km/h 90% 0in /  0.0mm 0 W/m2
02:15 50.9 °F /  10.5 °C 47.8 °F /  8.8 °C 29.9in /  1011.5hPa Calm   1mph /  1.6km/h 89% 0in /  0.0mm 0 W/m2
02:20 50.7 °F /  10.4 °C 47.7 °F /  8.7 °C 29.9in /  1011.5hPa WNW 0.9mph /  1.4km/h 2mph /  3.2km/h 89% 0in /  0.0mm 0 W/m2
02:25 50.7 °F /  10.4 °C 47.7 °F /  8.7 °C 29.9in /  1011.5hPa Calm     89% 0in /  0.0mm 0 W/m2
02:30 50.5 °F /  10.3 °C 47.5 °F /  8.6 °C 29.9in /  1011.5hPa Calm   2mph /  3.2km/h 89% 0in /  0.0mm 0 W/m2
02:35 50.4 °F /  10.2 °C 47.3 °F /  8.5 °C 29.9in /  1011.5hPa WNW 0.9mph /  1.4km/h 1mph /  1.6km/h 89% 0in /  0.0mm 0 W/m2
02:40 50 °F /  10 °C 47.1 °F /  8.4 °C 29.9in /  1011.5hPa Calm     90% 0in /  0.0mm 0 W/m2
02:45 49.8 °F /  9.9 °C 46.9 °F /  8.3 °C 29.9in /  1011.5hPa Calm     90% 0in /  0.0mm 0 W/m2
02:50 49.6 °F /  9.8 °C 46.8 °F /  8.2 °C 29.9in /  1011.5hPa Calm     90% 0in /  0.0mm 0 W/m2
02:55 49.6 °F /  9.8 °C 47.1 °F /  8.4 °C 29.9in /  1011.5hPa Calm     91% 0in /  0.0mm 0 W/m2
03:00 49.5 °F /  9.7 °C 46.9 °F /  8.3 °C 29.9in /  1011.5hPa WNW 0.9mph /  1.4km/h 2mph /  3.2km/h 91% 0in /  0.0mm 0 W/m2
03:05 49.5 °F /  9.7 °C 46.9 °F /  8.3 °C 29.9in /  1011.5hPa Calm     91% 0in /  0.0mm 0 W/m2
03:10 49.3 °F /  9.6 °C 46.8 °F /  8.2 °C 29.9in /  1011.5hPa Calm     91% 0in /  0.0mm 0 W/m2
03:15 49.3 °F /  9.6 °C 46.8 °F /  8.2 °C 29.9in /  1011.2hPa Calm     91% 0in /  0.0mm 0 W/m2
03:20 49.1 °F /  9.5 °C 46.9 °F /  8.3 °C 29.9in /  1011.2hPa Calm     92% 0in /  0.0mm 0 W/m2
03:25 49.1 °F /  9.5 °C 46.9 °F /  8.3 °C 29.9in /  1011.2hPa Calm   1mph /  1.6km/h 92% 0in /  0.0mm 0 W/m2
03:30 49.1 °F /  9.5 °C 46.9 °F /  8.3 °C 29.9in /  1011.2hPa Calm     92% 0in /  0.0mm 0 W/m2
03:35 49.3 °F /  9.6 °C 47.1 °F /  8.4 °C 29.9in /  1011.2hPa Calm     92% 0in /  0.0mm 0 W/m2
03:40 49.3 °F /  9.6 °C 47.1 °F /  8.4 °C 29.9in /  1011.2hPa Calm   1mph /  1.6km/h 92% 0in /  0.0mm 0 W/m2
03:45 49.1 °F /  9.5 °C 46.9 °F /  8.3 °C 29.9in /  1011.2hPa Calm     92% 0in /  0.0mm 0 W/m2
03:50 49.3 °F /  9.6 °C 47.1 °F /  8.4 °C 29.9in /  1011.2hPa Calm     92% 0in /  0.0mm 0 W/m2
03:55 49.1 °F /  9.5 °C 46.9 °F /  8.3 °C 29.9in /  1011.2hPa Calm     92% 0in /  0.0mm 0 W/m2
04:00 49.3 °F /  9.6 °C 47.1 °F /  8.4 °C 29.9in /  1011.2hPa Calm     92% 0in /  0.0mm 0 W/m2
04:05 49.3 °F /  9.6 °C 47.1 °F /  8.4 °C 29.9in /  1011.2hPa Calm     92% 0in /  0.0mm 0 W/m2
04:10 49.3 °F /  9.6 °C 47.1 °F /  8.4 °C 29.9in /  1011.2hPa Calm     92% 0in /  0.0mm 0 W/m2
04:15 49.1 °F /  9.5 °C 46.9 °F /  8.3 °C 29.9in /  1011.2hPa Calm     92% 0in /  0.0mm 0 W/m2
04:20 49.3 °F /  9.6 °C 47.3 °F /  8.5 °C 29.9in /  1011.2hPa WNW 2mph /  3.2km/h 2mph /  3.2km/h 93% 0in /  0.0mm 0 W/m2
04:25 49.3 °F /  9.6 °C 47.3 °F /  8.5 °C 29.9in /  1011.2hPa Calm     93% 0in /  0.0mm 0 W/m2
04:30 49.3 °F /  9.6 °C 47.3 °F /  8.5 °C 29.9in /  1011.2hPa WNW 2mph /  3.2km/h 2mph /  3.2km/h 93% 0in /  0.0mm 0 W/m2
04:35 49.5 °F /  9.7 °C 47.5 °F /  8.6 °C 29.9in /  1011.2hPa WSW 2.9mph /  4.7km/h 3mph /  4.8km/h 93% 0in /  0.0mm 0 W/m2
04:40 49.6 °F /  9.8 °C 47.5 °F /  8.6 °C 29.9in /  1011.2hPa WSW 0.9mph /  1.4km/h 2mph /  3.2km/h 92% 0in /  0.0mm 0 W/m2
04:45 49.8 °F /  9.9 °C 47.7 °F /  8.7 °C 29.9in /  1011.2hPa Calm     92% 0in /  0.0mm 0 W/m2
04:50 49.8 °F /  9.9 °C 47.7 °F /  8.7 °C 29.9in /  1011.2hPa Calm   2mph /  3.2km/h 92% 0in /  0.0mm 0 W/m2
04:55 49.8 °F /  9.9 °C 47.7 °F /  8.7 °C 29.9in /  1011.2hPa ENE 0.9mph /  1.4km/h 2mph /  3.2km/h 92% 0in /  0.0mm 0 W/m2
05:00 49.8 °F /  9.9 °C 47.7 °F /  8.7 °C 29.9in /  1011.2hPa Calm     92% 0in /  0.0mm 0 W/m2
05:05 49.8 °F /  9.9 °C 47.7 °F /  8.7 °C 29.9in /  1011.5hPa Calm   2mph /  3.2km/h 92% 0in /  0.0mm 0 W/m2
05:10 49.8 °F /  9.9 °C 47.7 °F /  8.7 °C 29.9in /  1011.2hPa Calm     92% 0in /  0.0mm 0 W/m2
05:15 49.8 °F /  9.9 °C 47.7 °F /  8.7 °C 29.9in /  1011.2hPa Calm     92% 0in /  0.0mm 0 W/m2
05:20 49.6 °F /  9.8 °C 47.5 °F /  8.6 °C 29.9in /  1011.5hPa Calm     92% 0in /  0.0mm 0 W/m2
05:25 49.8 °F /  9.9 °C 47.7 °F /  8.7 °C 29.9in /  1011.5hPa Calm     92% 0in /  0.0mm 0 W/m2
05:31 49.8 °F /  9.9 °C 47.7 °F /  8.7 °C 29.9in /  1011.5hPa Calm     92% 0in /  0.0mm 0 W/m2
05:36 49.8 °F /  9.9 °C 47.7 °F /  8.7 °C 29.9in /  1011.5hPa Calm   1mph /  1.6km/h 92% 0in /  0.0mm 0 W/m2
05:41 49.8 °F /  9.9 °C 47.7 °F /  8.7 °C 29.9in /  1011.5hPa Calm     92% 0in /  0.0mm 0 W/m2
05:46 49.8 °F /  9.9 °C 47.7 °F /  8.7 °C 29.9in /  1011.5hPa Calm     92% 0in /  0.0mm 0 W/m2
05:51 49.8 °F /  9.9 °C 47.7 °F /  8.7 °C 29.9in /  1011.9hPa Calm     92% 0in /  0.0mm 5 W/m2
05:56 50 °F /  10 °C 47.8 °F /  8.8 °C 29.9in /  1011.9hPa Calm   2mph /  3.2km/h 92% 0in /  0.0mm 7 W/m2
06:01 50 °F /  10 °C 47.8 °F /  8.8 °C 29.9in /  1011.9hPa Calm     92% 0in /  0.0mm 9 W/m2
06:06 50 °F /  10 °C 47.8 °F /  8.8 °C 29.9in /  1011.9hPa Calm     92% 0in /  0.0mm 11 W/m2
06:11 50.2 °F /  10.1 °C 48 °F /  8.9 °C 29.9in /  1011.9hPa ENE 0.9mph /  1.4km/h 2mph /  3.2km/h 92% 0in /  0.0mm 12 W/m2
06:16 50.2 °F /  10.1 °C 48 °F /  8.9 °C 29.9in /  1011.9hPa Calm   1mph /  1.6km/h 92% 0in /  0.0mm 16 W/m2
06:21 50.2 °F /  10.1 °C 48 °F /  8.9 °C 29.9in /  1011.9hPa ENE 2mph /  3.2km/h 2mph /  3.2km/h 92% 0in /  0.0mm 18 W/m2
06:26 50.4 °F /  10.2 °C 48.2 °F /  9 °C 29.9in /  1011.9hPa Calm     92% 0in /  0.0mm 21 W/m2
06:31 50.4 °F /  10.2 °C 48.2 °F /  9 °C 29.9in /  1011.9hPa Calm     92% 0in /  0.0mm 26 W/m2
06:36 50.5 °F /  10.3 °C 48.4 °F /  9.1 °C 29.9in /  1011.9hPa Calm     92% 0in /  0.0mm 35 W/m2
06:41 50.5 °F /  10.3 °C 48.4 °F /  9.1 °C 29.9in /  1011.9hPa Calm     92% 0in /  0.0mm 42 W/m2
06:46 50.7 °F /  10.4 °C 48.6 °F /  9.2 °C 29.9in /  1011.9hPa Calm     92% 0in /  0.0mm 47 W/m2
06:51 50.7 °F /  10.4 °C 48.6 °F /  9.2 °C 29.9in /  1011.9hPa Calm     92% 0in /  0.0mm 49 W/m2
06:56 50.9 °F /  10.5 °C 48.7 °F /  9.3 °C 29.9in /  1011.9hPa Calm     92% 0in /  0.0mm 40 W/m2
07:01 51.1 °F /  10.6 °C 48.9 °F /  9.4 °C 29.9in /  1011.9hPa NNW 0.9mph /  1.4km/h 2mph /  3.2km/h 92% 0in /  0.0mm 35 W/m2
07:06 51.1 °F /  10.6 °C 48.9 °F /  9.4 °C 29.9in /  1011.9hPa Calm   1mph /  1.6km/h 92% 0in /  0.0mm 37 W/m2
07:11 51.1 °F /  10.6 °C 48.9 °F /  9.4 °C 29.9in /  1011.9hPa Calm   2mph /  3.2km/h 92% 0in /  0.0mm 42 W/m2
07:16 51.1 °F /  10.6 °C 48.6 °F /  9.2 °C 29.9in /  1012.2hPa Calm     91% 0in /  0.0mm 47 W/m2
07:21 51.1 °F /  10.6 °C 48.9 °F /  9.4 °C 29.9in /  1012.2hPa Calm     92% 0in /  0.0mm 47 W/m2
07:26 51.1 °F /  10.6 °C 48.9 °F /  9.4 °C 29.9in /  1012.2hPa Calm     92% 0in /  0.0mm 63 W/m2
07:31 51.1 °F /  10.6 °C 48.9 °F /  9.4 °C 29.9in /  1012.2hPa Calm     92% 0in /  0.0mm 67 W/m2
07:37 51.3 °F /  10.7 °C 49.1 °F /  9.5 °C 29.9in /  1012.2hPa Calm     92% 0in /  0.0mm 102 W/m2
07:42 51.6 °F /  10.9 °C 49.5 °F /  9.7 °C 29.9in /  1012.5hPa Calm     92% 0in /  0.0mm 146 W/m2
07:47 52.2 °F /  11.2 °C 49.8 °F /  9.9 °C 29.9in /  1012.5hPa Calm     92% 0in /  0.0mm 220 W/m2
07:52 53.2 °F /  11.8 °C 50.4 °F /  10.2 °C 29.9in /  1012.5hPa Calm   1mph /  1.6km/h 90% 0in /  0.0mm 287 W/m2
07:57 54.1 °F /  12.3 °C 50.4 °F /  10.2 °C 29.9in /  1012.5hPa North 0.9mph /  1.4km/h 1mph /  1.6km/h 87% 0in /  0.0mm 206 W/m2
08:02 54.9 °F /  12.7 °C 50.2 °F /  10.1 °C 29.9in /  1012.5hPa Calm     84% 0in /  0.0mm 193 W/m2
08:07 55 °F /  12.8 °C 49.6 °F /  9.8 °C 29.9in /  1012.5hPa Calm   1mph /  1.6km/h 82% 0in /  0.0mm 188 W/m2
08:12 55 °F /  12.8 °C 49.6 °F /  9.8 °C 29.9in /  1012.5hPa NNE 0.9mph /  1.4km/h 1mph /  1.6km/h 82% 0in /  0.0mm 176 W/m2
08:17 55 °F /  12.8 °C 49.3 °F /  9.6 °C 29.9in /  1012.5hPa Calm   2mph /  3.2km/h 81% 0in /  0.0mm 192 W/m2
08:22 55.2 °F /  12.9 °C 49.5 °F /  9.7 °C 29.9in /  1012.5hPa Calm   1mph /  1.6km/h 81% 0in /  0.0mm 199 W/m2
08:27 55.9 °F /  13.3 °C 50.2 °F /  10.1 °C 29.9in /  1012.5hPa North 2.9mph /  4.7km/h 4mph /  6.4km/h 81% 0in /  0.0mm 399 W/m2
08:32 56.1 °F /  13.4 °C 49.3 °F /  9.6 °C 29.9in /  1012.5hPa Calm   2mph /  3.2km/h 78% 0in /  0.0mm 278 W/m2
08:37 56.7 °F /  13.7 °C 49.5 °F /  9.7 °C 29.9in /  1012.5hPa NW 0.9mph /  1.4km/h 1mph /  1.6km/h 77% 0in /  0.0mm 381 W/m2
08:42 57.2 °F /  14 °C 50 °F /  10 °C 29.9in /  1012.5hPa NW 0.9mph /  1.4km/h 2mph /  3.2km/h 77% 0in /  0.0mm 396 W/m2
08:47 57.7 °F /  14.3 °C 50.2 °F /  10.1 °C 29.9in /  1012.5hPa WNW 0.9mph /  1.4km/h 3mph /  4.8km/h 76% 0in /  0.0mm 408 W/m2
08:52 57.7 °F /  14.3 °C 50.2 °F /  10.1 °C 29.9in /  1012.5hPa NNE 2mph /  3.2km/h 3mph /  4.8km/h 76% 0in /  0.0mm 422 W/m2
08:57 58.3 °F /  14.6 °C 50 °F /  10 °C 29.9in /  1012.5hPa SE 2mph /  3.2km/h 3mph /  4.8km/h 74% 0in /  0.0mm 439 W/m2
09:02 58.6 °F /  14.8 °C 50.4 °F /  10.2 °C 29.9in /  1012.5hPa NW 0.9mph /  1.4km/h 3mph /  4.8km/h 74% 0in /  0.0mm 448 W/m2
09:07 58.8 °F /  14.9 °C 50.2 °F /  10.1 °C 29.9in /  1012.5hPa NNW 2mph /  3.2km/h 3mph /  4.8km/h 73% 0in /  0.0mm 462 W/m2
09:12 59.2 °F /  15.1 °C 50.2 °F /  10.1 °C 29.9in /  1012.5hPa SSE 2mph /  3.2km/h 2mph /  3.2km/h 72% 0in /  0.0mm 480 W/m2
09:17 59.5 °F /  15.3 °C 50.5 °F /  10.3 °C 29.9in /  1012.5hPa ENE 2mph /  3.2km/h 4mph /  6.4km/h 72% 0in /  0.0mm 492 W/m2
09:22 60.1 °F /  15.6 °C 51.1 °F /  10.6 °C 29.9in /  1012.5hPa East 2.9mph /  4.7km/h 3mph /  4.8km/h 72% 0in /  0.0mm 501 W/m2
09:27 60.6 °F /  15.9 °C 52 °F /  11.1 °C 29.9in /  1012.5hPa ESE 2mph /  3.2km/h 2mph /  3.2km/h 73% 0in /  0.0mm 517 W/m2
09:32 61.2 °F /  16.2 °C 51.3 °F /  10.7 °C 29.9in /  1012.9hPa NE 2mph /  3.2km/h 4mph /  6.4km/h 70% 0in /  0.0mm 527 W/m2
09:37 61.3 °F /  16.3 °C 51.1 °F /  10.6 °C 29.9in /  1012.9hPa ESE 0.9mph /  1.4km/h 4mph /  6.4km/h 69% 0in /  0.0mm 540 W/m2
09:42 61.3 °F /  16.3 °C 51.1 °F /  10.6 °C 29.9in /  1012.9hPa Calm   2mph /  3.2km/h 69% 0in /  0.0mm 552 W/m2
09:47 61.5 °F /  16.4 °C 51.3 °F /  10.7 °C 29.9in /  1012.5hPa North 0.9mph /  1.4km/h 1mph /  1.6km/h 69% 0in /  0.0mm 566 W/m2
09:52 61.5 °F /  16.4 °C 51.3 °F /  10.7 °C 29.9in /  1012.9hPa SSE 0.9mph /  1.4km/h 2mph /  3.2km/h 69% 0in /  0.0mm 578 W/m2
09:57 62.1 °F /  16.7 °C 51.4 °F /  10.8 °C 29.9in /  1012.5hPa East 2mph /  3.2km/h 2mph /  3.2km/h 68% 0in /  0.0mm 596 W/m2
10:02 62.2 °F /  16.8 °C 50.7 °F /  10.4 °C 29.9in /  1012.9hPa NNW 2mph /  3.2km/h 2mph /  3.2km/h 66% 0in /  0.0mm 606 W/m2
10:07 62.2 °F /  16.8 °C 51.1 °F /  10.6 °C 29.9in /  1012.9hPa North 2mph /  3.2km/h 2mph /  3.2km/h 67% 0in /  0.0mm 79 W/m2
10:12 62.1 °F /  16.7 °C 50.9 °F /  10.5 °C 29.9in /  1012.9hPa North 0.9mph /  1.4km/h 2mph /  3.2km/h 67% 0in /  0.0mm 149 W/m2
10:17 62.4 °F /  16.9 °C 51.3 °F /  10.7 °C 29.9in /  1012.5hPa Calm   3mph /  4.8km/h 67% 0in /  0.0mm 640 W/m2
10:30 63.5 °F /  17.5 °C 52 °F /  11.1 °C 29.9in /  1012.5hPa East 2mph /  3.2km/h 2mph /  3.2km/h 66% 0in /  0.0mm 670 W/m2
10:35 64.2 °F /  17.9 °C 51.4 °F /  10.8 °C 29.9in /  1012.5hPa Calm   2mph /  3.2km/h 63% 0in /  0.0mm 691 W/m2
10:40 64.8 °F /  18.2 °C 52.3 °F /  11.3 °C 29.9in /  1012.5hPa ESE 0.9mph /  1.4km/h 3mph /  4.8km/h 64% 0in /  0.0mm 708 W/m2
10:45 65.3 °F /  18.5 °C 52 °F /  11.1 °C 29.9in /  1012.5hPa ESE 2mph /  3.2km/h 3mph /  4.8km/h 62% 0in /  0.0mm 724 W/m2
10:50 65.7 °F /  18.7 °C 51.4 °F /  10.8 °C 29.9in /  1012.5hPa East 2.9mph /  4.7km/h 5mph /  8km/h 60% 0in /  0.0mm 749 W/m2
10:55 65.7 °F /  18.7 °C 51.4 °F /  10.8 °C 29.9in /  1012.5hPa North 0.9mph /  1.4km/h 4mph /  6.4km/h 60% 0in /  0.0mm 724 W/m2
11:00 65.5 °F /  18.6 °C 50.4 °F /  10.2 °C 29.9in /  1012.5hPa ENE 4mph /  6.4km/h 4mph /  6.4km/h 58% 0in /  0.0mm 802 W/m2
11:05 65.8 °F /  18.8 °C 49.6 °F /  9.8 °C 29.9in /  1012.5hPa Calm   2mph /  3.2km/h 56% 0in /  0.0mm 863 W/m2
11:10 66.4 °F /  19.1 °C 50.7 °F /  10.4 °C 29.9in /  1012.5hPa NW 2mph /  3.2km/h 3mph /  4.8km/h 57% 0in /  0.0mm 904 W/m2
11:16 66.9 °F /  19.4 °C 52.2 °F /  11.2 °C 29.9in /  1012.2hPa ENE 2.9mph /  4.7km/h 4mph /  6.4km/h 59% 0in /  0.0mm 861 W/m2
11:21 66.7 °F /  19.3 °C 51.4 °F /  10.8 °C 29.9in /  1012.5hPa ENE 0.9mph /  1.4km/h 7mph /  11.3km/h 58% 0in /  0.0mm 306 W/m2
11:26 66 °F /  18.9 °C 50.9 °F /  10.5 °C 29.9in /  1012.5hPa Calm   3mph /  4.8km/h 58% 0in /  0.0mm 302 W/m2
11:31 65.7 °F /  18.7 °C 50.9 °F /  10.5 °C 29.9in /  1012.5hPa NNW 0.9mph /  1.4km/h 4mph /  6.4km/h 59% 0in /  0.0mm 338 W/m2
11:36 65.1 °F /  18.4 °C 50 °F /  10 °C 29.9in /  1012.5hPa North 0.9mph /  1.4km/h 5mph /  8km/h 58% 0in /  0.0mm 281 W/m2
11:41 65.1 °F /  18.4 °C 50.4 °F /  10.2 °C 29.9in /  1012.5hPa NW 0.9mph /  1.4km/h 8mph /  12.9km/h 59% 0in /  0.0mm 267 W/m2
11:46 64.6 °F /  18.1 °C 50 °F /  10 °C 29.9in /  1012.9hPa NW 2.9mph /  4.7km/h 7mph /  11.3km/h 59% 0in /  0.0mm 134 W/m2
11:51 63 °F /  17.2 °C 50.2 °F /  10.1 °C 29.9in /  1012.5hPa WSW 6.9mph /  11.1km/h 12mph /  19.3km/h 63% 0in /  0.0mm 113 W/m2
11:56 60.6 °F /  15.9 °C 49.3 °F /  9.6 °C 29.9in /  1012.9hPa West 8.9mph /  14.3km/h 12mph /  19.3km/h 66% 0in /  0.0mm 104 W/m2
12:01 59.4 °F /  15.2 °C 49.6 °F /  9.8 °C 29.9in /  1012.9hPa WSW 4.9mph /  7.9km/h 8mph /  12.9km/h 70% 0in /  0.0mm 105 W/m2
12:06 58.1 °F /  14.5 °C 49.5 °F /  9.7 °C 29.9in /  1012.9hPa WNW 4.9mph /  7.9km/h 8mph /  12.9km/h 73% 0in /  0.0mm 113 W/m2
12:11 57.4 °F /  14.1 °C 48.7 °F /  9.3 °C 29.9in /  1012.9hPa SW 4mph /  6.4km/h 6mph /  9.7km/h 73% 0in /  0.0mm 114 W/m2
12:16 57 °F /  13.9 °C 48.4 °F /  9.1 °C 29.9in /  1012.9hPa WNW 6mph /  9.7km/h 6mph /  9.7km/h 73% 0in /  0.0mm 118 W/m2
12:21 57 °F /  13.9 °C 48.7 °F /  9.3 °C 29.9in /  1012.9hPa West 4mph /  6.4km/h 7mph /  11.3km/h 74% 0in /  0.0mm 127 W/m2
12:26 57.4 °F /  14.1 °C 49.5 °F /  9.7 °C 29.9in /  1012.9hPa WNW 6.9mph /  11.1km/h 12mph /  19.3km/h 75% 0in /  0.0mm 151 W/m2
12:31 57.7 °F /  14.3 °C 48 °F /  8.9 °C 29.9in /  1012.9hPa WSW 2.9mph /  4.7km/h 4mph /  6.4km/h 70% 0in /  0.0mm 195 W/m2
12:36 57.9 °F /  14.4 °C 48.2 °F /  9 °C 29.9in /  1012.9hPa WNW 2.9mph /  4.7km/h 7mph /  11.3km/h 70% 0in /  0.0mm 239 W/m2
12:41 58.5 °F /  14.7 °C 48.4 °F /  9.1 °C 29.9in /  1012.9hPa WNW 2mph /  3.2km/h 4mph /  6.4km/h 69% 0in /  0.0mm 272 W/m2
12:46 59 °F /  15 °C 48.4 °F /  9.1 °C 29.9in /  1012.9hPa Calm   1mph /  1.6km/h 68% 0in /  0.0mm 295 W/m2
12:51 59.5 °F /  15.3 °C 49.3 °F /  9.6 °C 29.9in /  1012.9hPa West 2.9mph /  4.7km/h 4mph /  6.4km/h 69% 0in /  0.0mm 316 W/m2
12:56 60.1 °F /  15.6 °C 49.1 °F /  9.5 °C 29.9in /  1012.9hPa WNW 2.9mph /  4.7km/h 3mph /  4.8km/h 67% 0in /  0.0mm 330 W/m2
13:01 60.4 °F /  15.8 °C 48.6 °F /  9.2 °C 29.9in /  1012.9hPa West 2mph /  3.2km/h 3mph /  4.8km/h 65% 0in /  0.0mm 327 W/m2
13:06 61 °F /  16.1 °C 50.7 °F /  10.4 °C 29.9in /  1012.9hPa West 6.9mph /  11.1km/h 8mph /  12.9km/h 69% 0in /  0.0mm 302 W/m2
13:11 60.6 °F /  15.9 °C 52 °F /  11.1 °C 29.9in /  1012.9hPa West 4mph /  6.4km/h 4mph /  6.4km/h 73% 0in /  0.0mm 362 W/m2
13:16 60.3 °F /  15.7 °C 51.6 °F /  10.9 °C 29.9in /  1012.9hPa West 4mph /  6.4km/h 8mph /  12.9km/h 73% 0in /  0.0mm 425 W/m2
13:21 60.4 °F /  15.8 °C 51.4 °F /  10.8 °C 29.9in /  1012.5hPa WNW 2.9mph /  4.7km/h 3mph /  4.8km/h 72% 0in /  0.0mm 575 W/m2
13:26 61.2 °F /  16.2 °C 52 °F /  11.1 °C 29.9in /  1012.9hPa WNW 2.9mph /  4.7km/h 6mph /  9.7km/h 72% 0in /  0.0mm 341 W/m2
13:31 61.5 °F /  16.4 °C 51.6 °F /  10.9 °C 29.9in /  1012.5hPa WNW 2mph /  3.2km/h 6mph /  9.7km/h 70% 0in /  0.0mm 327 W/m2
13:36 61.7 °F /  16.5 °C 51.8 °F /  11 °C 29.9in /  1012.5hPa WSW 4mph /  6.4km/h 7mph /  11.3km/h 70% 0in /  0.0mm 309 W/m2
13:41 61.9 °F /  16.6 °C 52.7 °F /  11.5 °C 29.9in /  1012.9hPa WNW 2mph /  3.2km/h 3mph /  4.8km/h 72% 0in /  0.0mm 341 W/m2
13:46 62.2 °F /  16.8 °C 51.1 °F /  10.6 °C 29.9in /  1012.5hPa WNW 0.9mph /  1.4km/h 4mph /  6.4km/h 67% 0in /  0.0mm 429 W/m2
13:51 63 °F /  17.2 °C 51.4 °F /  10.8 °C 29.9in /  1012.5hPa NW 2.9mph /  4.7km/h 5mph /  8km/h 66% 0in /  0.0mm 858 W/m2
13:56 64 °F /  17.8 °C 50.7 °F /  10.4 °C 29.9in /  1012.5hPa West 2.9mph /  4.7km/h 5mph /  8km/h 62% 0in /  0.0mm 895 W/m2
14:01 64.8 °F /  18.2 °C 51.4 °F /  10.8 °C 29.9in /  1012.5hPa WNW 2.9mph /  4.7km/h 6mph /  9.7km/h 62% 0in /  0.0mm 691 W/m2
14:06 65.1 °F /  18.4 °C 50.9 °F /  10.5 °C 29.9in /  1012.5hPa WSW 4.9mph /  7.9km/h 7mph /  11.3km/h 60% 0in /  0.0mm 485 W/m2
14:11 65.3 °F /  18.5 °C 51.4 °F /  10.8 °C 29.9in /  1012.5hPa WSW 2.9mph /  4.7km/h 4mph /  6.4km/h 61% 0in /  0.0mm 448 W/m2
14:16 65.3 °F /  18.5 °C 49.6 °F /  9.8 °C 29.9in /  1012.5hPa WSW 6.9mph /  11.1km/h 7mph /  11.3km/h 57% 0in /  0.0mm 582 W/m2
14:21 65.1 °F /  18.4 °C 50 °F /  10 °C 29.9in /  1012.5hPa North 2.9mph /  4.7km/h 9mph /  14.5km/h 58% 0in /  0.0mm 496 W/m2
14:26 65.5 °F /  18.6 °C 47.8 °F /  8.8 °C 29.9in /  1012.5hPa NNW 0.9mph /  1.4km/h 4mph /  6.4km/h 53% 0in /  0.0mm 895 W/m2
14:32 66 °F /  18.9 °C 48.9 °F /  9.4 °C 29.9in /  1012.5hPa NNW 4mph /  6.4km/h 10mph /  16.1km/h 54% 0in /  0.0mm 1078 W/m2
14:37 66.6 °F /  19.2 °C 49.5 °F /  9.7 °C 29.9in /  1012.5hPa NNW 6mph /  9.7km/h 7mph /  11.3km/h 54% 0in /  0.0mm 1044 W/m2
14:42 66.4 °F /  19.1 °C 48.7 °F /  9.3 °C 29.9in /  1012.5hPa WSW 4.9mph /  7.9km/h 11mph /  17.7km/h 53% 0in /  0.0mm 1113 W/m2
14:47 66.2 °F /  19 °C 49.6 °F /  9.8 °C 29.9in /  1012.5hPa WNW 11mph /  17.7km/h 12mph /  19.3km/h 55% 0in /  0.0mm 1155 W/m2
14:52 65.8 °F /  18.8 °C 49.6 °F /  9.8 °C 29.9in /  1012.5hPa West 4mph /  6.4km/h 13mph /  20.9km/h 56% 0in /  0.0mm 677 W/m2
14:57 65.1 °F /  18.4 °C 48.6 °F /  9.2 °C 29.9in /  1012.5hPa NNW 4mph /  6.4km/h 9mph /  14.5km/h 55% 0in /  0.0mm 355 W/m2
15:02 64.8 °F /  18.2 °C 49.1 °F /  9.5 °C 29.9in /  1012.5hPa NNW 2.9mph /  4.7km/h 5mph /  8km/h 57% 0in /  0.0mm 406 W/m2
15:07 64.8 °F /  18.2 °C 49.1 °F /  9.5 °C 29.9in /  1012.5hPa NW 2.9mph /  4.7km/h 6mph /  9.7km/h 57% 0in /  0.0mm 425 W/m2
15:12 64.9 °F /  18.3 °C 49.3 °F /  9.6 °C 29.9in /  1012.5hPa NW 2mph /  3.2km/h 6mph /  9.7km/h 57% 0in /  0.0mm 524 W/m2
15:17 65.7 °F /  18.7 °C 49.1 °F /  9.5 °C 29.9in /  1012.2hPa WNW 4mph /  6.4km/h 6mph /  9.7km/h 55% 0in /  0.0mm 561 W/m2
15:22 66.4 °F /  19.1 °C 47.1 °F /  8.4 °C 29.9in /  1012.2hPa NNE 2mph /  3.2km/h 3mph /  4.8km/h 50% 0in /  0.0mm 958 W/m2
15:27 66.9 °F /  19.4 °C 46 °F /  7.8 °C 29.9in /  1012.2hPa NW 2mph /  3.2km/h 6mph /  9.7km/h 47% 0in /  0.0mm 459 W/m2
15:32 67.1 °F /  19.5 °C 46.2 °F /  7.9 °C 29.9in /  1012.2hPa West 2.9mph /  4.7km/h 5mph /  8km/h 47% 0in /  0.0mm 545 W/m2
15:37 67.3 °F /  19.6 °C 46.4 °F /  8 °C 29.9in /  1012.2hPa WSW 2.9mph /  4.7km/h 8mph /  12.9km/h 47% 0in /  0.0mm 524 W/m2
15:42 67.3 °F /  19.6 °C 45.1 °F /  7.3 °C 29.9in /  1012.5hPa West 2.9mph /  4.7km/h 4mph /  6.4km/h 45% 0in /  0.0mm 454 W/m2
15:47 66.9 °F /  19.4 °C 46.6 °F /  8.1 °C 29.9in /  1012.2hPa West 0.9mph /  1.4km/h 8mph /  12.9km/h 48% 0in /  0.0mm 397 W/m2
15:52 67.1 °F /  19.5 °C 46.2 °F /  7.9 °C 29.9in /  1012.2hPa West 4mph /  6.4km/h 9mph /  14.5km/h 47% 0in /  0.0mm 408 W/m2
15:57 66.7 °F /  19.3 °C 45.3 °F /  7.4 °C 29.9in /  1012.2hPa NW 2.9mph /  4.7km/h 7mph /  11.3km/h 46% 0in /  0.0mm 392 W/m2
16:02 66.7 °F /  19.3 °C 45.3 °F /  7.4 °C 29.9in /  1012.2hPa NNW 2mph /  3.2km/h 3mph /  4.8km/h 46% 0in /  0.0mm 494 W/m2
16:07 67.1 °F /  19.5 °C 46.2 °F /  7.9 °C 29.9in /  1012.2hPa West 2.9mph /  4.7km/h 7mph /  11.3km/h 47% 0in /  0.0mm 410 W/m2
16:12 67.5 °F /  19.7 °C 46 °F /  7.8 °C 29.9in /  1012.2hPa WNW 4mph /  6.4km/h 4mph /  6.4km/h 46% 0in /  0.0mm 487 W/m2
16:17 67.8 °F /  19.9 °C 45.1 °F /  7.3 °C 29.9in /  1012.2hPa North 2mph /  3.2km/h 5mph /  8km/h 44% 0in /  0.0mm 406 W/m2
16:22 68.2 °F /  20.1 °C 46 °F /  7.8 °C 29.9in /  1012.2hPa WNW 4mph /  6.4km/h 11mph /  17.7km/h 45% 0in /  0.0mm 780 W/m2
16:27 67.8 °F /  19.9 °C 45.7 °F /  7.6 °C 29.9in /  1012.2hPa NW 0.9mph /  1.4km/h 3mph /  4.8km/h 45% 0in /  0.0mm 315 W/m2
16:32 67.6 °F /  19.8 °C 45.5 °F /  7.5 °C 29.9in /  1012.2hPa WNW 0.9mph /  1.4km/h 9mph /  14.5km/h 45% 0in /  0.0mm 348 W/m2
16:37 67.3 °F /  19.6 °C 46.4 °F /  8 °C 29.9in /  1012.2hPa NNW 4.9mph /  7.9km/h 9mph /  14.5km/h 47% 0in /  0.0mm 213 W/m2
16:42 66.9 °F /  19.4 °C 45.5 °F /  7.5 °C 29.9in /  1012.2hPa WNW 0.9mph /  1.4km/h 4mph /  6.4km/h 46% 0in /  0.0mm 211 W/m2
16:47 66.7 °F /  19.3 °C 45.3 °F /  7.4 °C 29.9in /  1011.9hPa Calm   2mph /  3.2km/h 46% 0in /  0.0mm 301 W/m2
16:53 67.3 °F /  19.6 °C 46.9 °F /  8.3 °C 29.9in /  1011.9hPa WSW 2.9mph /  4.7km/h 7mph /  11.3km/h 48% 0in /  0.0mm 399 W/m2
16:58 67.8 °F /  19.9 °C 49.6 °F /  9.8 °C 29.9in /  1011.9hPa WNW 6mph /  9.7km/h 11mph /  17.7km/h 52% 0in /  0.0mm 766 W/m2
17:03 68 °F /  20 °C 49.3 °F /  9.6 °C 29.9in /  1011.9hPa West 8.9mph /  14.3km/h 13mph /  20.9km/h 51% 0in /  0.0mm 786 W/m2
17:08 67.6 °F /  19.8 °C 47.8 °F /  8.8 °C 29.9in /  1011.9hPa NW 2.9mph /  4.7km/h 9mph /  14.5km/h 49% 0in /  0.0mm 703 W/m2
17:13 67.6 °F /  19.8 °C 47.8 °F /  8.8 °C 29.9in /  1011.9hPa WNW 2mph /  3.2km/h 9mph /  14.5km/h 49% 0in /  0.0mm 733 W/m2
17:18 68.4 °F /  20.2 °C 46.8 °F /  8.2 °C 29.9in /  1011.9hPa NW 4mph /  6.4km/h 9mph /  14.5km/h 46% 0in /  0.0mm 631 W/m2
17:23 68.2 °F /  20.1 °C 46.6 °F /  8.1 °C 29.9in /  1012.2hPa WNW 2.9mph /  4.7km/h 10mph /  16.1km/h 46% 0in /  0.0mm 608 W/m2
17:28 68.2 °F /  20.1 °C 46.6 °F /  8.1 °C 29.9in /  1011.9hPa West 6.9mph /  11.1km/h 8mph /  12.9km/h 46% 0in /  0.0mm 592 W/m2
17:33 68.2 °F /  20.1 °C 46.6 °F /  8.1 °C 29.9in /  1011.9hPa West 8.9mph /  14.3km/h 10mph /  16.1km/h 46% 0in /  0.0mm 584 W/m2
17:38 68 °F /  20 °C 45.9 °F /  7.7 °C 29.9in /  1011.9hPa WNW 6mph /  9.7km/h 8mph /  12.9km/h 45% 0in /  0.0mm 571 W/m2
17:43 68 °F /  20 °C 46.9 °F /  8.3 °C 29.9in /  1011.9hPa West 6.9mph /  11.1km/h 7mph /  11.3km/h 47% 0in /  0.0mm 568 W/m2
17:48 68.4 °F /  20.2 °C 46.8 °F /  8.2 °C 29.9in /  1011.9hPa West 2.9mph /  4.7km/h 6mph /  9.7km/h 46% 0in /  0.0mm 559 W/m2
17:53 68.5 °F /  20.3 °C 45.1 °F /  7.3 °C 29.9in /  1011.9hPa WNW 2.9mph /  4.7km/h 7mph /  11.3km/h 43% 0in /  0.0mm 540 W/m2
Juneau County Weather
Compliments of Weather Underground - 2 mb